sensor_id;sensor_type;location;lat;lon;timestamp;temperature;humidity
23120;DHT22;11729;50.836;4.330;2023-03-20T00:02:43;7.90;99.90
23120;DHT22;11729;50.836;4.330;2023-03-20T00:05:20;8.00;99.90
23120;DHT22;11729;50.836;4.330;2023-03-20T00:07:47;8.00;99.90
23120;DHT22;11729;50.836;4.330;2023-03-20T00:10:14;8.00;99.90
23120;DHT22;11729;50.836;4.330;2023-03-20T00:12:41;8.00;99.90
23120;DHT22;11729;50.836;4.330;2023-03-20T00:17:45;8.00;99.90
23120;DHT22;11729;50.836;4.330;2023-03-20T00:20:14;7.90;99.90
23120;DHT22;11729;50.836;4.330;2023-03-20T00:22:40;8.00;99.90
23120;DHT22;11729;50.836;4.330;2023-03-20T00:25:08;8.00;99.90
23120;DHT22;11729;50.836;4.330;2023-03-20T00:27:36;8.10;99.90
23120;DHT22;11729;50.836;4.330;2023-03-20T00:30:04;8.10;99.90
23120;DHT22;11729;50.836;4.330;2023-03-20T00:32:29;8.10;99.90
23120;DHT22;11729;50.836;4.330;2023-03-20T00:34:55;8.00;99.90
23120;DHT22;11729;50.836;4.330;2023-03-20T00:37:21;8.00;99.90
23120;DHT22;11729;50.836;4.330;2023-03-20T00:39:46;8.00;99.90
23120;DHT22;11729;50.836;4.330;2023-03-20T00:42:20;8.10;99.90
23120;DHT22;11729;50.836;4.330;2023-03-20T00:44:54;8.20;99.90
23120;DHT22;11729;50.836;4.330;2023-03-20T00:47:21;8.30;99.90
23120;DHT22;11729;50.836;4.330;2023-03-20T00:49:49;8.30;99.90
23120;DHT22;11729;50.836;4.330;2023-03-20T00:52:17;8.40;99.90
23120;DHT22;11729;50.836;4.330;2023-03-20T00:54:43;8.40;99.90
23120;DHT22;11729;50.836;4.330;2023-03-20T00:57:38;8.30;99.90
23120;DHT22;11729;50.836;4.330;2023-03-20T01:00:30;8.10;99.90
23120;DHT22;11729;50.836;4.330;2023-03-20T01:02:54;8.20;99.90
23120;DHT22;11729;50.836;4.330;2023-03-20T01:05:21;8.50;99.90
23120;DHT22;11729;50.836;4.330;2023-03-20T01:07:47;8.50;99.90
23120;DHT22;11729;50.836;4.330;2023-03-20T01:10:13;8.50;99.90
23120;DHT22;11729;50.836;4.330;2023-03-20T01:12:39;8.50;99.90
23120;DHT22;11729;50.836;4.330;2023-03-20T01:15:21;8.60;99.90
23120;DHT22;11729;50.836;4.330;2023-03-20T01:17:48;8.50;99.90
23120;DHT22;11729;50.836;4.330;2023-03-20T01:20:21;8.60;99.90
23120;DHT22;11729;50.836;4.330;2023-03-20T01:22:47;8.60;99.90
23120;DHT22;11729;50.836;4.330;2023-03-20T01:25:13;8.70;99.90
23120;DHT22;11729;50.836;4.330;2023-03-20T01:27:39;8.60;99.90
23120;DHT22;11729;50.836;4.330;2023-03-20T01:32:45;8.70;99.90
23120;DHT22;11729;50.836;4.330;2023-03-20T01:35:13;8.90;99.90
23120;DHT22;11729;50.836;4.330;2023-03-20T01:37:40;8.90;99.90
23120;DHT22;11729;50.836;4.330;2023-03-20T01:40:21;8.90;99.90
23120;DHT22;11729;50.836;4.330;2023-03-20T01:42:51;9.00;99.90
23120;DHT22;11729;50.836;4.330;2023-03-20T01:45:21;8.90;99.90
23120;DHT22;11729;50.836;4.330;2023-03-20T01:47:49;8.90;99.90
23120;DHT22;11729;50.836;4.330;2023-03-20T01:50:23;8.80;99.90
23120;DHT22;11729;50.836;4.330;2023-03-20T01:52:54;8.80;99.90
23120;DHT22;11729;50.836;4.330;2023-03-20T01:55:22;8.80;99.90
23120;DHT22;11729;50.836;4.330;2023-03-20T01:57:50;8.90;99.90
23120;DHT22;11729;50.836;4.330;2023-03-20T02:00:17;9.00;99.90
23120;DHT22;11729;50.836;4.330;2023-03-20T02:02:45;9.00;99.90
23120;DHT22;11729;50.836;4.330;2023-03-20T02:05:12;9.10;99.90
23120;DHT22;11729;50.836;4.330;2023-03-20T02:07:40;9.00;99.90
23120;DHT22;11729;50.836;4.330;2023-03-20T02:10:14;9.00;99.90
23120;DHT22;11729;50.836;4.330;2023-03-20T02:12:41;8.80;99.90
23120;DHT22;11729;50.836;4.330;2023-03-20T02:15:07;8.70;99.90
23120;DHT22;11729;50.836;4.330;2023-03-20T02:17:34;8.70;99.90
23120;DHT22;11729;50.836;4.330;2023-03-20T02:20:20;8.70;99.90
23120;DHT22;11729;50.836;4.330;2023-03-20T02:25:51;8.90;99.90
23120;DHT22;11729;50.836;4.330;2023-03-20T02:35:11;8.70;99.90
23120;DHT22;11729;50.836;4.330;2023-03-20T02:37:50;8.70;99.90
23120;DHT22;11729;50.836;4.330;2023-03-20T02:49:09;8.60;99.90
23120;DHT22;11729;50.836;4.330;2023-03-20T02:51:58;8.50;99.90
23120;DHT22;11729;50.836;4.330;2023-03-20T02:54:42;8.70;99.90
23120;DHT22;11729;50.836;4.330;2023-03-20T02:57:26;8.70;99.90
23120;DHT22;11729;50.836;4.330;2023-03-20T03:00:02;8.70;99.90
23120;DHT22;11729;50.836;4.330;2023-03-20T03:02:36;8.70;99.90
23120;DHT22;11729;50.836;4.330;2023-03-20T03:05:31;8.60;99.90
23120;DHT22;11729;50.836;4.330;2023-03-20T03:08:01;8.50;99.90
23120;DHT22;11729;50.836;4.330;2023-03-20T03:10:54;8.40;99.90
23120;DHT22;11729;50.836;4.330;2023-03-20T03:13:26;8.40;99.90
23120;DHT22;11729;50.836;4.330;2023-03-20T03:15:57;8.40;99.90
23120;DHT22;11729;50.836;4.330;2023-03-20T03:18:28;8.40;99.90
23120;DHT22;11729;50.836;4.330;2023-03-20T03:21:00;8.40;99.90
23120;DHT22;11729;50.836;4.330;2023-03-20T03:23:47;8.50;99.90
23120;DHT22;11729;50.836;4.330;2023-03-20T03:26:19;8.50;99.90
23120;DHT22;11729;50.836;4.330;2023-03-20T03:28:48;8.40;99.90
23120;DHT22;11729;50.836;4.330;2023-03-20T03:31:16;8.40;99.90
23120;DHT22;11729;50.836;4.330;2023-03-20T03:33:47;8.40;99.90
23120;DHT22;11729;50.836;4.330;2023-03-20T03:48:06;8.40;99.90
23120;DHT22;11729;50.836;4.330;2023-03-20T03:50:53;8.50;99.90
23120;DHT22;11729;50.836;4.330;2023-03-20T03:53:24;8.50;99.90
23120;DHT22;11729;50.836;4.330;2023-03-20T03:55:54;8.50;99.90
23120;DHT22;11729;50.836;4.330;2023-03-20T03:58:40;8.50;99.90
23120;DHT22;11729;50.836;4.330;2023-03-20T04:01:09;8.60;99.90
23120;DHT22;11729;50.836;4.330;2023-03-20T04:03:39;8.50;99.90
23120;DHT22;11729;50.836;4.330;2023-03-20T04:06:09;8.40;99.90
23120;DHT22;11729;50.836;4.330;2023-03-20T04:08:35;8.50;99.90
23120;DHT22;11729;50.836;4.330;2023-03-20T04:11:01;8.50;99.90
23120;DHT22;11729;50.836;4.330;2023-03-20T04:13:27;8.50;99.90
23120;DHT22;11729;50.836;4.330;2023-03-20T04:15:53;8.40;99.90
23120;DHT22;11729;50.836;4.330;2023-03-20T04:18:18;8.30;99.90
23120;DHT22;11729;50.836;4.330;2023-03-20T04:20:45;8.40;99.90
23120;DHT22;11729;50.836;4.330;2023-03-20T04:23:12;8.50;99.90
23120;DHT22;11729;50.836;4.330;2023-03-20T04:25:38;8.40;99.90
23120;DHT22;11729;50.836;4.330;2023-03-20T04:28:04;8.40;99.90
23120;DHT22;11729;50.836;4.330;2023-03-20T04:30:29;8.40;99.90
23120;DHT22;11729;50.836;4.330;2023-03-20T04:32:56;8.50;99.90
23120;DHT22;11729;50.836;4.330;2023-03-20T04:35:22;8.40;99.90
23120;DHT22;11729;50.836;4.330;2023-03-20T04:37:47;8.40;99.90
23120;DHT22;11729;50.836;4.330;2023-03-20T04:40:13;8.40;99.90
23120;DHT22;11729;50.836;4.330;2023-03-20T04:42:39;8.40;99.90
23120;DHT22;11729;50.836;4.330;2023-03-20T04:45:06;8.40;99.90
23120;DHT22;11729;50.836;4.330;2023-03-20T04:47:32;8.50;99.90
23120;DHT22;11729;50.836;4.330;2023-03-20T04:49:58;8.40;99.90
23120;DHT22;11729;50.836;4.330;2023-03-20T04:52:23;8.50;99.90
23120;DHT22;11729;50.836;4.330;2023-03-20T04:54:50;8.40;99.90
23120;DHT22;11729;50.836;4.330;2023-03-20T04:57:16;8.50;99.90
23120;DHT22;11729;50.836;4.330;2023-03-20T04:59:41;8.40;99.90
23120;DHT22;11729;50.836;4.330;2023-03-20T05:02:07;8.50;99.90
23120;DHT22;11729;50.836;4.330;2023-03-20T05:04:33;8.50;99.90
23120;DHT22;11729;50.836;4.330;2023-03-20T05:06:59;8.30;99.90
23120;DHT22;11729;50.836;4.330;2023-03-20T05:09:25;8.30;99.90
23120;DHT22;11729;50.836;4.330;2023-03-20T05:11:50;8.20;99.90
23120;DHT22;11729;50.836;4.330;2023-03-20T05:14:16;8.30;99.90
23120;DHT22;11729;50.836;4.330;2023-03-20T05:16:42;8.30;99.90
23120;DHT22;11729;50.836;4.330;2023-03-20T05:19:07;8.40;99.90
23120;DHT22;11729;50.836;4.330;2023-03-20T05:21:33;8.40;99.90
23120;DHT22;11729;50.836;4.330;2023-03-20T05:24:01;8.50;99.90
23120;DHT22;11729;50.836;4.330;2023-03-20T05:26:26;8.30;99.90
23120;DHT22;11729;50.836;4.330;2023-03-20T05:28:52;8.30;99.90
23120;DHT22;11729;50.836;4.330;2023-03-20T05:31:17;8.30;99.90
23120;DHT22;11729;50.836;4.330;2023-03-20T05:33:43;8.20;99.90
23120;DHT22;11729;50.836;4.330;2023-03-20T05:36:09;8.20;99.90
23120;DHT22;11729;50.836;4.330;2023-03-20T05:38:35;8.20;99.90
23120;DHT22;11729;50.836;4.330;2023-03-20T05:41:00;8.20;99.90
23120;DHT22;11729;50.836;4.330;2023-03-20T05:43:26;8.40;99.90
23120;DHT22;11729;50.836;4.330;2023-03-20T05:45:54;8.40;99.90
23120;DHT22;11729;50.836;4.330;2023-03-20T05:48:21;8.30;99.90
23120;DHT22;11729;50.836;4.330;2023-03-20T05:50:46;8.50;99.90
23120;DHT22;11729;50.836;4.330;2023-03-20T05:53:13;8.60;99.90
23120;DHT22;11729;50.836;4.330;2023-03-20T05:55:39;8.50;99.90
23120;DHT22;11729;50.836;4.330;2023-03-20T05:58:06;8.60;99.90
23120;DHT22;11729;50.836;4.330;2023-03-20T06:00:31;8.60;99.90
23120;DHT22;11729;50.836;4.330;2023-03-20T06:02:57;8.60;99.90
23120;DHT22;11729;50.836;4.330;2023-03-20T06:05:23;8.60;99.90
23120;DHT22;11729;50.836;4.330;2023-03-20T06:07:48;8.70;99.90
23120;DHT22;11729;50.836;4.330;2023-03-20T06:10:14;8.70;99.90
23120;DHT22;11729;50.836;4.330;2023-03-20T06:12:39;8.60;99.90
23120;DHT22;11729;50.836;4.330;2023-03-20T06:15:05;8.70;99.90
23120;DHT22;11729;50.836;4.330;2023-03-20T06:17:32;8.60;99.90
23120;DHT22;11729;50.836;4.330;2023-03-20T06:19:57;8.60;99.90
23120;DHT22;11729;50.836;4.330;2023-03-20T06:22:23;8.50;99.90
23120;DHT22;11729;50.836;4.330;2023-03-20T06:24:49;8.50;99.90
23120;DHT22;11729;50.836;4.330;2023-03-20T06:27:16;8.50;99.90
23120;DHT22;11729;50.836;4.330;2023-03-20T06:29:42;8.60;99.90
23120;DHT22;11729;50.836;4.330;2023-03-20T06:32:08;8.70;99.90
23120;DHT22;11729;50.836;4.330;2023-03-20T06:34:35;8.50;99.90
23120;DHT22;11729;50.836;4.330;2023-03-20T06:37:00;8.50;99.90
23120;DHT22;11729;50.836;4.330;2023-03-20T06:39:26;8.50;99.90
23120;DHT22;11729;50.836;4.330;2023-03-20T06:41:53;8.50;99.90
23120;DHT22;11729;50.836;4.330;2023-03-20T06:44:18;8.60;99.90
23120;DHT22;11729;50.836;4.330;2023-03-20T06:46:44;8.60;99.90
23120;DHT22;11729;50.836;4.330;2023-03-20T06:49:12;8.60;99.90
23120;DHT22;11729;50.836;4.330;2023-03-20T06:51:38;8.50;99.90
23120;DHT22;11729;50.836;4.330;2023-03-20T06:54:03;8.40;99.90
23120;DHT22;11729;50.836;4.330;2023-03-20T06:56:29;8.50;99.90
23120;DHT22;11729;50.836;4.330;2023-03-20T06:58:56;8.50;99.90
23120;DHT22;11729;50.836;4.330;2023-03-20T07:01:21;8.70;99.90
23120;DHT22;11729;50.836;4.330;2023-03-20T07:03:48;8.60;99.90
23120;DHT22;11729;50.836;4.330;2023-03-20T07:06:15;8.70;99.90
23120;DHT22;11729;50.836;4.330;2023-03-20T07:08:43;8.60;99.90
23120;DHT22;11729;50.836;4.330;2023-03-20T07:11:09;8.60;99.90
23120;DHT22;11729;50.836;4.330;2023-03-20T07:13:34;8.50;99.90
23120;DHT22;11729;50.836;4.330;2023-03-20T07:16:01;8.60;99.90
23120;DHT22;11729;50.836;4.330;2023-03-20T07:18:27;8.50;99.90
23120;DHT22;11729;50.836;4.330;2023-03-20T07:20:53;8.50;99.90
23120;DHT22;11729;50.836;4.330;2023-03-20T07:23:22;8.60;99.90
23120;DHT22;11729;50.836;4.330;2023-03-20T07:25:48;8.70;99.90
23120;DHT22;11729;50.836;4.330;2023-03-20T07:28:13;8.70;99.90
23120;DHT22;11729;50.836;4.330;2023-03-20T07:30:39;8.70;99.90
23120;DHT22;11729;50.836;4.330;2023-03-20T07:33:06;8.70;99.90
23120;DHT22;11729;50.836;4.330;2023-03-20T07:35:32;8.80;99.90
23120;DHT22;11729;50.836;4.330;2023-03-20T07:37:58;8.90;99.90
23120;DHT22;11729;50.836;4.330;2023-03-20T07:40:23;9.10;99.90
23120;DHT22;11729;50.836;4.330;2023-03-20T07:42:49;9.10;99.90
23120;DHT22;11729;50.836;4.330;2023-03-20T07:45:15;9.20;99.90
23120;DHT22;11729;50.836;4.330;2023-03-20T07:47:43;9.30;99.90
23120;DHT22;11729;50.836;4.330;2023-03-20T07:50:09;9.40;99.90
23120;DHT22;11729;50.836;4.330;2023-03-20T07:52:35;9.30;99.90
23120;DHT22;11729;50.836;4.330;2023-03-20T07:55:01;9.40;99.90
23120;DHT22;11729;50.836;4.330;2023-03-20T07:57:26;9.40;99.90
23120;DHT22;11729;50.836;4.330;2023-03-20T07:59:52;9.40;99.90
23120;DHT22;11729;50.836;4.330;2023-03-20T08:02:18;9.50;99.90
23120;DHT22;11729;50.836;4.330;2023-03-20T08:04:44;9.80;99.90
23120;DHT22;11729;50.836;4.330;2023-03-20T08:07:10;9.70;99.90
23120;DHT22;11729;50.836;4.330;2023-03-20T08:09:36;9.70;99.90
23120;DHT22;11729;50.836;4.330;2023-03-20T08:12:03;9.70;99.90
23120;DHT22;11729;50.836;4.330;2023-03-20T08:14:29;9.70;99.90
23120;DHT22;11729;50.836;4.330;2023-03-20T08:16:54;9.70;99.90
23120;DHT22;11729;50.836;4.330;2023-03-20T08:19:20;9.70;99.90
23120;DHT22;11729;50.836;4.330;2023-03-20T08:21:46;9.90;99.90
23120;DHT22;11729;50.836;4.330;2023-03-20T08:24:12;9.80;99.90
23120;DHT22;11729;50.836;4.330;2023-03-20T08:26:37;9.80;99.90
23120;DHT22;11729;50.836;4.330;2023-03-20T08:29:03;9.90;99.90
23120;DHT22;11729;50.836;4.330;2023-03-20T08:31:29;9.90;99.90
23120;DHT22;11729;50.836;4.330;2023-03-20T08:33:56;9.90;99.90
23120;DHT22;11729;50.836;4.330;2023-03-20T08:36:22;9.80;99.90
23120;DHT22;11729;50.836;4.330;2023-03-20T08:38:48;9.80;99.90
23120;DHT22;11729;50.836;4.330;2023-03-20T08:41:15;10.00;99.90
23120;DHT22;11729;50.836;4.330;2023-03-20T08:43:41;10.00;99.90
23120;DHT22;11729;50.836;4.330;2023-03-20T08:46:07;10.00;99.90
23120;DHT22;11729;50.836;4.330;2023-03-20T08:48:34;10.10;99.90
23120;DHT22;11729;50.836;4.330;2023-03-20T08:51:00;10.00;99.90
23120;DHT22;11729;50.836;4.330;2023-03-20T08:53:26;10.10;99.90
23120;DHT22;11729;50.836;4.330;2023-03-20T08:55:52;10.20;99.90
23120;DHT22;11729;50.836;4.330;2023-03-20T08:58:19;10.20;99.90
23120;DHT22;11729;50.836;4.330;2023-03-20T09:00:45;10.00;99.90
23120;DHT22;11729;50.836;4.330;2023-03-20T09:03:15;10.10;99.90
23120;DHT22;11729;50.836;4.330;2023-03-20T09:05:46;10.10;99.90
23120;DHT22;11729;50.836;4.330;2023-03-20T09:08:13;10.10;99.90
23120;DHT22;11729;50.836;4.330;2023-03-20T09:10:39;10.20;99.90
23120;DHT22;11729;50.836;4.330;2023-03-20T09:13:07;10.30;99.90
23120;DHT22;11729;50.836;4.330;2023-03-20T09:15:34;10.50;99.90
23120;DHT22;11729;50.836;4.330;2023-03-20T09:17:59;10.60;99.90
23120;DHT22;11729;50.836;4.330;2023-03-20T09:20:25;10.50;99.90
23120;DHT22;11729;50.836;4.330;2023-03-20T09:22:51;10.70;99.90
23120;DHT22;11729;50.836;4.330;2023-03-20T09:25:17;10.60;99.90
23120;DHT22;11729;50.836;4.330;2023-03-20T09:27:43;10.60;99.90
23120;DHT22;11729;50.836;4.330;2023-03-20T09:30:11;10.50;99.90
23120;DHT22;11729;50.836;4.330;2023-03-20T09:32:37;10.50;99.90
23120;DHT22;11729;50.836;4.330;2023-03-20T09:35:03;10.60;99.90
23120;DHT22;11729;50.836;4.330;2023-03-20T09:37:29;10.70;99.90
23120;DHT22;11729;50.836;4.330;2023-03-20T09:39:55;10.70;99.90
23120;DHT22;11729;50.836;4.330;2023-03-20T09:45:14;10.90;99.90
23120;DHT22;11729;50.836;4.330;2023-03-20T09:47:55;10.90;99.90
23120;DHT22;11729;50.836;4.330;2023-03-20T09:50:33;11.10;99.90
23120;DHT22;11729;50.836;4.330;2023-03-20T09:53:12;11.40;99.90
23120;DHT22;11729;50.836;4.330;2023-03-20T09:55:41;11.90;99.90
23120;DHT22;11729;50.836;4.330;2023-03-20T09:58:18;12.20;99.90
23120;DHT22;11729;50.836;4.330;2023-03-20T10:00:45;12.40;99.90
23120;DHT22;11729;50.836;4.330;2023-03-20T10:03:18;12.40;99.90
23120;DHT22;11729;50.836;4.330;2023-03-20T10:06:32;12.30;99.90
23120;DHT22;11729;50.836;4.330;2023-03-20T10:08:35;12.40;99.90
23120;DHT22;11729;50.836;4.330;2023-03-20T10:21:46;12.20;99.90
23120;DHT22;11729;50.836;4.330;2023-03-20T10:24:31;12.30;99.90
23120;DHT22;11729;50.836;4.330;2023-03-20T10:27:05;12.50;99.90
23120;DHT22;11729;50.836;4.330;2023-03-20T10:35:11;13.00;99.90
23120;DHT22;11729;50.836;4.330;2023-03-20T10:40:24;13.40;99.90
23120;DHT22;11729;50.836;4.330;2023-03-20T10:42:54;13.50;99.90
23120;DHT22;11729;50.836;4.330;2023-03-20T10:47:50;13.40;99.90
23120;DHT22;11729;50.836;4.330;2023-03-20T10:50:18;13.60;99.90
23120;DHT22;11729;50.836;4.330;2023-03-20T10:52:48;14.00;99.90
23120;DHT22;11729;50.836;4.330;2023-03-20T10:55:27;14.20;99.90
23120;DHT22;11729;50.836;4.330;2023-03-20T10:58:02;14.30;99.90
23120;DHT22;11729;50.836;4.330;2023-03-20T11:00:29;14.20;99.90
23120;DHT22;11729;50.836;4.330;2023-03-20T11:02:55;14.30;99.90
23120;DHT22;11729;50.836;4.330;2023-03-20T11:05:24;14.10;99.90
23120;DHT22;11729;50.836;4.330;2023-03-20T11:08:04;13.70;99.90
23120;DHT22;11729;50.836;4.330;2023-03-20T11:10:34;13.70;99.90
23120;DHT22;11729;50.836;4.330;2023-03-20T11:13:32;13.60;99.90
23120;DHT22;11729;50.836;4.330;2023-03-20T11:18:42;14.00;99.90
23120;DHT22;11729;50.836;4.330;2023-03-20T11:21:26;14.10;99.90
23120;DHT22;11729;50.836;4.330;2023-03-20T11:23:53;14.20;99.90
23120;DHT22;11729;50.836;4.330;2023-03-20T11:28:58;14.00;99.90
23120;DHT22;11729;50.836;4.330;2023-03-20T11:31:35;14.30;99.90
23120;DHT22;11729;50.836;4.330;2023-03-20T11:34:22;14.40;99.90
23120;DHT22;11729;50.836;4.330;2023-03-20T11:36:56;14.30;99.90
23120;DHT22;11729;50.836;4.330;2023-03-20T11:39:25;14.40;99.90
23120;DHT22;11729;50.836;4.330;2023-03-20T11:41:54;14.50;99.90
23120;DHT22;11729;50.836;4.330;2023-03-20T11:44:27;14.80;99.90
23120;DHT22;11729;50.836;4.330;2023-03-20T11:47:00;15.10;99.90
23120;DHT22;11729;50.836;4.330;2023-03-20T11:49:29;15.20;99.90
23120;DHT22;11729;50.836;4.330;2023-03-20T11:51:59;15.30;99.90
23120;DHT22;11729;50.836;4.330;2023-03-20T11:54:26;15.40;99.90
23120;DHT22;11729;50.836;4.330;2023-03-20T11:56:57;15.30;99.90
23120;DHT22;11729;50.836;4.330;2023-03-20T11:59:43;15.10;99.90
23120;DHT22;11729;50.836;4.330;2023-03-20T12:02:18;14.90;99.90
23120;DHT22;11729;50.836;4.330;2023-03-20T12:04:48;14.80;99.90
23120;DHT22;11729;50.836;4.330;2023-03-20T12:07:32;14.90;99.90
23120;DHT22;11729;50.836;4.330;2023-03-20T12:10:06;15.10;99.90
23120;DHT22;11729;50.836;4.330;2023-03-20T12:15:48;16.30;99.90
23120;DHT22;11729;50.836;4.330;2023-03-20T12:23:36;18.20;99.90
23120;DHT22;11729;50.836;4.330;2023-03-20T12:26:14;18.30;99.90
23120;DHT22;11729;50.836;4.330;2023-03-20T12:36:33;18.00;99.90
23120;DHT22;11729;50.836;4.330;2023-03-20T12:39:05;18.10;99.90
23120;DHT22;11729;50.836;4.330;2023-03-20T12:44:17;18.10;99.90
23120;DHT22;11729;50.836;4.330;2023-03-20T12:52:52;17.30;99.90
23120;DHT22;11729;50.836;4.330;2023-03-20T13:01:03;17.20;99.90
23120;DHT22;11729;50.836;4.330;2023-03-20T13:06:50;16.40;99.90
23120;DHT22;11729;50.836;4.330;2023-03-20T13:09:41;15.90;99.90
23120;DHT22;11729;50.836;4.330;2023-03-20T13:15:22;15.30;99.90
23120;DHT22;11729;50.836;4.330;2023-03-20T13:18:18;15.00;99.90
23120;DHT22;11729;50.836;4.330;2023-03-20T13:26:22;14.80;99.90
23120;DHT22;11729;50.836;4.330;2023-03-20T13:31:53;14.60;99.90
23120;DHT22;11729;50.836;4.330;2023-03-20T13:34:31;14.40;99.90
23120;DHT22;11729;50.836;4.330;2023-03-20T13:37:20;14.50;99.90
23120;DHT22;11729;50.836;4.330;2023-03-20T13:42:18;14.60;99.90
23120;DHT22;11729;50.836;4.330;2023-03-20T13:44:46;14.50;99.90
23120;DHT22;11729;50.836;4.330;2023-03-20T13:47:24;14.40;99.90
23120;DHT22;11729;50.836;4.330;2023-03-20T13:53:00;14.40;99.90
23120;DHT22;11729;50.836;4.330;2023-03-20T13:55:41;14.10;99.90
23120;DHT22;11729;50.836;4.330;2023-03-20T14:03:36;13.90;99.90
23120;DHT22;11729;50.836;4.330;2023-03-20T14:06:41;14.00;99.90
23120;DHT22;11729;50.836;4.330;2023-03-20T14:11:58;13.80;99.90
23120;DHT22;11729;50.836;4.330;2023-03-20T14:14:26;13.70;99.90
23120;DHT22;11729;50.836;4.330;2023-03-20T14:19:36;13.80;99.90
23120;DHT22;11729;50.836;4.330;2023-03-20T14:22:02;13.80;99.90
23120;DHT22;11729;50.836;4.330;2023-03-20T14:24:28;13.80;99.90
23120;DHT22;11729;50.836;4.330;2023-03-20T14:26:58;13.70;99.90
23120;DHT22;11729;50.836;4.330;2023-03-20T14:34:51;13.80;99.90
23120;DHT22;11729;50.836;4.330;2023-03-20T14:42:58;14.00;99.90
23120;DHT22;11729;50.836;4.330;2023-03-20T14:53:27;14.20;99.90
23120;DHT22;11729;50.836;4.330;2023-03-20T14:58:34;14.30;99.90
23120;DHT22;11729;50.836;4.330;2023-03-20T15:01:02;14.30;99.90
23120;DHT22;11729;50.836;4.330;2023-03-20T15:03:29;14.20;99.90
23120;DHT22;11729;50.836;4.330;2023-03-20T15:05:58;14.20;99.90
23120;DHT22;11729;50.836;4.330;2023-03-20T15:08:29;14.20;99.90
23120;DHT22;11729;50.836;4.330;2023-03-20T15:10:58;14.10;99.90
23120;DHT22;11729;50.836;4.330;2023-03-20T15:13:25;13.90;99.90
23120;DHT22;11729;50.836;4.330;2023-03-20T15:16:09;14.00;99.90
23120;DHT22;11729;50.836;4.330;2023-03-20T15:18:38;13.90;99.90
23120;DHT22;11729;50.836;4.330;2023-03-20T15:21:15;13.80;99.90
23120;DHT22;11729;50.836;4.330;2023-03-20T15:23:45;13.70;99.90
23120;DHT22;11729;50.836;4.330;2023-03-20T15:26:16;13.70;99.90
23120;DHT22;11729;50.836;4.330;2023-03-20T15:28:43;13.70;99.90
23120;DHT22;11729;50.836;4.330;2023-03-20T15:31:24;13.60;99.90
23120;DHT22;11729;50.836;4.330;2023-03-20T15:33:51;13.60;99.90
23120;DHT22;11729;50.836;4.330;2023-03-20T15:36:22;13.60;99.90
23120;DHT22;11729;50.836;4.330;2023-03-20T15:38:49;13.50;99.90
23120;DHT22;11729;50.836;4.330;2023-03-20T15:41:24;13.50;99.90
23120;DHT22;11729;50.836;4.330;2023-03-20T15:43:51;13.50;99.90
23120;DHT22;11729;50.836;4.330;2023-03-20T15:46:17;13.40;99.90
23120;DHT22;11729;50.836;4.330;2023-03-20T15:48:50;13.50;99.90
23120;DHT22;11729;50.836;4.330;2023-03-20T15:51:16;13.40;99.90
23120;DHT22;11729;50.836;4.330;2023-03-20T15:53:45;13.50;99.90
23120;DHT22;11729;50.836;4.330;2023-03-20T15:56:14;13.50;99.90
23120;DHT22;11729;50.836;4.330;2023-03-20T15:58:42;13.40;99.90
23120;DHT22;11729;50.836;4.330;2023-03-20T16:01:14;13.30;99.90
23120;DHT22;11729;50.836;4.330;2023-03-20T16:03:41;13.40;99.90
23120;DHT22;11729;50.836;4.330;2023-03-20T16:06:11;13.40;99.90
23120;DHT22;11729;50.836;4.330;2023-03-20T16:08:39;13.50;99.90
23120;DHT22;11729;50.836;4.330;2023-03-20T16:11:13;13.60;99.90
23120;DHT22;11729;50.836;4.330;2023-03-20T16:13:42;13.60;99.90
23120;DHT22;11729;50.836;4.330;2023-03-20T16:16:14;13.70;99.90
23120;DHT22;11729;50.836;4.330;2023-03-20T16:18:40;13.70;99.90
23120;DHT22;11729;50.836;4.330;2023-03-20T16:21:17;13.50;99.90
23120;DHT22;11729;50.836;4.330;2023-03-20T16:23:48;13.40;99.90
23120;DHT22;11729;50.836;4.330;2023-03-20T16:26:18;13.30;99.90
23120;DHT22;11729;50.836;4.330;2023-03-20T16:28:56;13.30;99.90
23120;DHT22;11729;50.836;4.330;2023-03-20T16:31:28;13.40;99.90
23120;DHT22;11729;50.836;4.330;2023-03-20T16:34:00;13.50;99.90
23120;DHT22;11729;50.836;4.330;2023-03-20T16:36:30;13.40;99.90
23120;DHT22;11729;50.836;4.330;2023-03-20T16:41:41;13.50;99.90
23120;DHT22;11729;50.836;4.330;2023-03-20T16:44:26;13.60;99.90
23120;DHT22;11729;50.836;4.330;2023-03-20T16:47:13;13.50;99.90
23120;DHT22;11729;50.836;4.330;2023-03-20T16:49:50;13.60;99.90
23120;DHT22;11729;50.836;4.330;2023-03-20T16:52:26;13.70;99.90
23120;DHT22;11729;50.836;4.330;2023-03-20T16:54:55;13.60;99.90
23120;DHT22;11729;50.836;4.330;2023-03-20T16:57:21;13.50;99.90
23120;DHT22;11729;50.836;4.330;2023-03-20T16:59:47;13.50;99.90
23120;DHT22;11729;50.836;4.330;2023-03-20T17:02:31;13.70;99.90
23120;DHT22;11729;50.836;4.330;2023-03-20T17:05:06;13.70;99.90
23120;DHT22;11729;50.836;4.330;2023-03-20T17:07:38;13.60;99.90
23120;DHT22;11729;50.836;4.330;2023-03-20T17:12:41;13.40;99.90
23120;DHT22;11729;50.836;4.330;2023-03-20T17:15:19;13.30;99.90
23120;DHT22;11729;50.836;4.330;2023-03-20T17:17:45;13.30;99.90
23120;DHT22;11729;50.836;4.330;2023-03-20T17:20:24;13.30;99.90
23120;DHT22;11729;50.836;4.330;2023-03-20T17:22:52;13.30;99.90
23120;DHT22;11729;50.836;4.330;2023-03-20T17:25:19;13.30;99.90
23120;DHT22;11729;50.836;4.330;2023-03-20T17:27:45;13.30;99.90
23120;DHT22;11729;50.836;4.330;2023-03-20T17:30:20;13.30;99.90
23120;DHT22;11729;50.836;4.330;2023-03-20T17:32:47;13.20;99.90
23120;DHT22;11729;50.836;4.330;2023-03-20T17:35:13;13.20;99.90
23120;DHT22;11729;50.836;4.330;2023-03-20T17:37:39;13.20;99.90
23120;DHT22;11729;50.836;4.330;2023-03-20T17:40:05;13.30;99.90
23120;DHT22;11729;50.836;4.330;2023-03-20T17:42:31;13.30;99.90
23120;DHT22;11729;50.836;4.330;2023-03-20T17:44:58;13.30;99.90
23120;DHT22;11729;50.836;4.330;2023-03-20T17:47:26;13.20;99.90
23120;DHT22;11729;50.836;4.330;2023-03-20T17:49:53;13.10;99.90
23120;DHT22;11729;50.836;4.330;2023-03-20T17:52:25;13.00;99.90
23120;DHT22;11729;50.836;4.330;2023-03-20T17:54:51;13.00;99.90
23120;DHT22;11729;50.836;4.330;2023-03-20T17:57:43;13.00;99.90
23120;DHT22;11729;50.836;4.330;2023-03-20T18:00:19;12.90;99.90
23120;DHT22;11729;50.836;4.330;2023-03-20T18:02:45;12.80;99.90
23120;DHT22;11729;50.836;4.330;2023-03-20T18:05:11;12.80;99.90
23120;DHT22;11729;50.836;4.330;2023-03-20T18:07:37;12.70;99.90
23120;DHT22;11729;50.836;4.330;2023-03-20T18:10:03;12.80;99.90
23120;DHT22;11729;50.836;4.330;2023-03-20T18:12:29;12.80;99.90
23120;DHT22;11729;50.836;4.330;2023-03-20T18:14:56;12.80;99.90
23120;DHT22;11729;50.836;4.330;2023-03-20T18:17:22;12.80;99.90
23120;DHT22;11729;50.836;4.330;2023-03-20T18:19:48;12.80;99.90
23120;DHT22;11729;50.836;4.330;2023-03-20T18:22:13;12.80;99.90
23120;DHT22;11729;50.836;4.330;2023-03-20T18:24:39;12.90;99.90
23120;DHT22;11729;50.836;4.330;2023-03-20T18:27:06;12.90;99.90
23120;DHT22;11729;50.836;4.330;2023-03-20T18:29:32;12.90;99.90